createdAt,value
2018-10-09T00:00:24.794Z,69.72
2018-10-09T00:00:51.068Z,69.53
2018-10-09T00:01:17.064Z,69.91
2018-10-09T00:01:43.194Z,70.1
2018-10-09T00:02:09.329Z,69.82
2018-10-09T00:02:35.500Z,70.01
2018-10-09T00:03:01.632Z,69.72
2018-10-09T00:03:27.757Z,69.72
2018-10-09T00:03:53.892Z,69.91
2018-10-09T00:04:20.016Z,70.01
2018-10-09T00:04:46.169Z,70.1
2018-10-09T00:05:12.293Z,69.53
2018-10-09T00:05:38.423Z,69.43
2018-10-09T00:06:04.558Z,70.1
2018-10-09T00:06:30.690Z,69.82
2018-10-09T00:06:56.811Z,69.72
2018-10-09T00:07:22.934Z,69.72
2018-10-09T00:07:49.086Z,69.72
2018-10-09T00:08:15.213Z,69.62
2018-10-09T00:08:41.367Z,69.82
2018-10-09T00:09:07.497Z,69.62
2018-10-09T00:09:33.648Z,69.82
2018-10-09T00:09:59.786Z,70.87
2018-10-09T00:10:25.909Z,70.29
2018-10-09T00:10:52.041Z,70.2
2018-10-09T00:11:18.162Z,69.78
2018-10-09T00:11:44.289Z,69.72
2018-10-09T00:12:10.420Z,69.91
2018-10-09T00:12:36.550Z,70.1
2018-10-09T00:13:02.679Z,69.62
2018-10-09T00:13:28.805Z,69.72
2018-10-09T00:13:54.932Z,70.2
2018-10-09T00:14:21.053Z,69.68
2018-10-09T00:14:47.183Z,70.45
2018-10-09T00:15:13.316Z,70.92
2018-10-09T00:15:39.478Z,70.45
2018-10-09T00:16:05.602Z,70.92
2018-10-09T00:16:31.730Z,70.36
2018-10-09T00:16:57.858Z,70.73
2018-10-09T00:17:23.988Z,70.92
2018-10-09T00:17:50.130Z,71.21
2018-10-09T00:18:16.270Z,71.21
2018-10-09T00:18:42.419Z,70.92
2018-10-09T00:19:08.569Z,70.73
2018-10-09T00:19:34.702Z,71.12
2018-10-09T00:20:00.834Z,71.75
2018-10-09T00:20:26.959Z,71.66
2018-10-09T00:20:53.092Z,71.98
2018-10-09T00:21:19.222Z,72.07
2018-10-09T00:21:45.351Z,71.84
2018-10-09T00:22:11.498Z,72.42
2018-10-09T00:22:37.631Z,72.32
2018-10-09T00:23:03.784Z,72.42
2018-10-09T00:23:29.913Z,71.75
2018-10-09T00:23:56.092Z,71.56
2018-10-09T00:24:22.219Z,71.75
2018-10-09T00:24:48.365Z,71.27
2018-10-09T00:25:14.529Z,71.37
2018-10-09T00:25:40.654Z,71.37
2018-10-09T00:26:06.880Z,72.13
2018-10-09T00:26:32.916Z,71.94
2018-10-09T00:26:59.077Z,71.94
2018-10-09T00:27:25.210Z,71.75
2018-10-09T00:27:51.335Z,71.69
2018-10-09T00:28:17.484Z,71.98
2018-10-09T00:28:43.616Z,72.13
2018-10-09T00:29:09.741Z,72.13
2018-10-09T00:29:35.870Z,72.42
2018-10-09T00:30:02.004Z,71.84
2018-10-09T00:30:28.129Z,72.13
2018-10-09T00:30:54.267Z,71.37
2018-10-09T00:31:20.388Z,71.98
2018-10-09T00:31:46.519Z,71.84
2018-10-09T00:32:12.648Z,71.46
2018-10-09T00:32:38.774Z,71.75
2018-10-09T00:33:04.903Z,71.75
2018-10-09T00:33:31.043Z,72.03
2018-10-09T00:33:57.172Z,72.03
2018-10-09T00:34:23.292Z,72.03
2018-10-09T00:34:49.453Z,71.69
2018-10-09T00:35:15.579Z,72.07
2018-10-09T00:35:41.707Z,71.41
2018-10-09T00:36:07.837Z,70.92
2018-10-09T00:36:33.989Z,71.31
2018-10-09T00:37:00.122Z,71.02
2018-10-09T00:37:26.250Z,70.92
2018-10-09T00:37:52.379Z,71.21
2018-10-09T00:38:18.507Z,71.02
2018-10-09T00:38:44.637Z,71.12
2018-10-09T00:39:10.761Z,71.41
2018-10-09T00:39:36.898Z,70.92
2018-10-09T00:40:03.044Z,70.83
2018-10-09T00:40:29.195Z,70.54
2018-10-09T00:40:55.323Z,70.73
2018-10-09T00:41:21.455Z,70.73
2018-10-09T00:41:47.613Z,70.83
2018-10-09T00:42:20.023Z,70.83
2018-10-09T00:42:46.152Z,70.73
2018-10-09T00:43:12.280Z,70.36
2018-10-09T00:43:38.425Z,70.45
2018-10-09T00:44:04.552Z,70.64
2018-10-09T00:44:30.696Z,70.36
2018-10-09T00:44:56.855Z,70.64
2018-10-09T00:45:22.983Z,70.64
2018-10-09T00:45:49.115Z,70.54
2018-10-09T00:46:15.239Z,70.45
2018-10-09T00:46:41.386Z,70.64
2018-10-09T00:47:07.517Z,70.36
2018-10-09T00:47:33.655Z,70.36
2018-10-09T00:47:59.784Z,70.26
2018-10-09T00:48:25.913Z,70.36
2018-10-09T00:48:52.044Z,70.73
2018-10-09T00:49:18.170Z,70.54
2018-10-09T00:49:44.293Z,70.07
2018-10-09T00:50:10.439Z,70.73
2018-10-09T00:50:36.567Z,70.54
2018-10-09T00:51:02.713Z,70.45
2018-10-09T00:51:28.874Z,70.54
2018-10-09T00:51:55.023Z,69.87
2018-10-09T00:52:21.153Z,70.07
2018-10-09T00:52:47.273Z,69.78
2018-10-09T00:53:13.430Z,70.07
2018-10-09T00:53:39.577Z,69.78
2018-10-09T00:54:05.705Z,69.78
2018-10-09T00:54:31.857Z,70.16
2018-10-09T00:54:58.010Z,69.68
2018-10-09T00:55:24.144Z,69.97
2018-10-09T00:55:50.267Z,69.59
2018-10-09T00:56:16.389Z,69.62
2018-10-09T00:56:42.523Z,69.82
2018-10-09T00:57:08.670Z,69.62
2018-10-09T00:57:34.799Z,69.4
2018-10-09T00:58:00.933Z,69.24
2018-10-09T00:58:27.087Z,69.24
2018-10-09T00:58:53.207Z,69.34
2018-10-09T00:59:19.338Z,69.34
2018-10-09T00:59:45.491Z,69.91
2018-10-09T01:00:11.620Z,69.15
2018-10-09T01:00:37.751Z,69.11
2018-10-09T01:01:03.875Z,69.24
2018-10-09T01:01:30.029Z,69.11
2018-10-09T01:01:56.181Z,69.4
2018-10-09T01:02:22.313Z,69.15
2018-10-09T01:02:48.443Z,69.15
2018-10-09T01:03:14.567Z,69.34
2018-10-09T01:03:40.691Z,69.43
2018-10-09T01:04:06.844Z,69.53
2018-10-09T01:04:32.992Z,69.34
2018-10-09T01:04:59.119Z,68.86
2018-10-09T01:05:25.269Z,69.15
2018-10-09T01:05:51.420Z,69.05
2018-10-09T01:06:17.552Z,69.15
2018-10-09T01:06:43.677Z,68.76
2018-10-09T01:07:09.808Z,69.05
2018-10-09T01:07:36.020Z,69.53
2018-10-09T01:08:02.218Z,68.82
2018-10-09T01:08:28.283Z,69.31
2018-10-09T01:08:54.402Z,69.31
2018-10-09T01:09:20.543Z,69.11
2018-10-09T01:09:46.678Z,69.34
2018-10-09T01:10:12.824Z,69.43
2018-10-09T01:10:38.948Z,68.86
2018-10-09T01:11:05.104Z,69.21
2018-10-09T01:11:31.262Z,69.05
2018-10-09T01:11:57.417Z,69.15
2018-10-09T01:12:23.552Z,69.24
2018-10-09T01:12:49.701Z,69.24
2018-10-09T01:13:15.847Z,69.05
2018-10-09T01:13:41.989Z,69.31
2018-10-09T01:14:08.144Z,69.53
2018-10-09T01:14:34.275Z,69.4
2018-10-09T01:15:00.401Z,69.62
2018-10-09T01:15:26.530Z,69.15
2018-10-09T01:15:52.682Z,69.43
2018-10-09T01:16:18.811Z,69.43
2018-10-09T01:16:44.941Z,69.34
2018-10-09T01:17:11.071Z,69.24
2018-10-09T01:17:37.199Z,69.05
2018-10-09T01:18:03.325Z,69.05
2018-10-09T01:18:29.455Z,68.76
2018-10-09T01:18:55.578Z,68.48
2018-10-09T01:19:21.707Z,68.48
2018-10-09T01:19:47.833Z,68.76
2018-10-09T01:20:13.967Z,68.86
2018-10-09T01:20:40.089Z,68.86
2018-10-09T01:21:06.264Z,68.76
2018-10-09T01:21:32.396Z,68.67
2018-10-09T01:21:58.536Z,69.15
2018-10-09T01:22:24.656Z,68.96
2018-10-09T01:22:50.810Z,69.15
2018-10-09T01:23:16.932Z,68.96
2018-10-09T01:23:43.059Z,68.96
2018-10-09T01:24:09.189Z,68.96
2018-10-09T01:24:35.337Z,69.24
2018-10-09T01:25:01.474Z,68.48
2018-10-09T01:25:27.599Z,68.38
2018-10-09T01:25:53.726Z,68.57
2018-10-09T01:26:19.858Z,68.67
2018-10-09T01:26:45.990Z,68.96
2018-10-09T01:27:12.135Z,68.67
2018-10-09T01:27:38.275Z,68.76
2018-10-09T01:28:04.398Z,69.15
2018-10-09T01:28:30.528Z,69.15
2018-10-09T01:28:56.656Z,68.76
2018-10-09T01:29:22.808Z,68.76
2018-10-09T01:29:48.934Z,68.86
2018-10-09T01:30:15.065Z,68.96
2018-10-09T01:30:41.194Z,68.67
2018-10-09T01:31:07.343Z,68.86
2018-10-09T01:31:33.477Z,68.86
2018-10-09T01:31:59.596Z,68.76
2018-10-09T01:32:25.728Z,68.57
2018-10-09T01:32:51.880Z,68.76
2018-10-09T01:33:18.027Z,68.67
2018-10-09T01:33:44.158Z,68.57
2018-10-09T01:34:10.287Z,69.05
2018-10-09T01:34:36.413Z,68.96
2018-10-09T01:35:02.544Z,68.57
2018-10-09T01:35:28.719Z,69.05
2018-10-09T01:35:54.887Z,68.96
2018-10-09T01:36:21.015Z,68.76
2018-10-09T01:36:47.139Z,68.96
2018-10-09T01:37:13.296Z,68.96
2018-10-09T01:37:39.451Z,68.57
2018-10-09T01:38:05.579Z,69.05
2018-10-09T01:38:31.801Z,68.38
2018-10-09T01:38:57.926Z,69.02
2018-10-09T01:39:24.054Z,69.34
2018-10-09T01:39:50.188Z,69.34
2018-10-09T01:40:16.344Z,69.05
2018-10-09T01:40:42.518Z,69.05
2018-10-09T01:41:08.667Z,69.34
2018-10-09T01:41:34.797Z,69.24
2018-10-09T01:42:00.925Z,68.96
2018-10-09T01:42:27.056Z,68.86
2018-10-09T01:42:53.187Z,69.05
2018-10-09T01:43:19.322Z,69.15
2018-10-09T01:43:45.450Z,68.96
2018-10-09T01:44:11.572Z,68.96
2018-10-09T01:44:37.701Z,69.15
2018-10-09T01:45:03.830Z,68.96
2018-10-09T01:45:29.957Z,68.96
2018-10-09T01:45:56.114Z,68.96
2018-10-09T01:46:22.243Z,68.96
2018-10-09T01:46:48.391Z,68.96
2018-10-09T01:47:14.519Z,69.15
2018-10-09T01:47:40.650Z,68.96
2018-10-09T01:48:06.780Z,68.96
2018-10-09T01:48:32.904Z,69.05
2018-10-09T01:48:59.035Z,69.05
2018-10-09T01:49:25.210Z,69.05
2018-10-09T01:49:51.355Z,68.96
2018-10-09T01:50:17.480Z,68.96
2018-10-09T01:50:43.610Z,68.76
2018-10-09T01:51:09.746Z,68.96
2018-10-09T01:51:35.866Z,69.15
2018-10-09T01:52:01.999Z,69.05
2018-10-09T01:52:28.124Z,68.86
2018-10-09T01:52:54.250Z,69.34
2018-10-09T01:53:20.378Z,69.24
2018-10-09T01:53:46.505Z,69.31
2018-10-09T01:54:12.658Z,69.49
2018-10-09T01:54:38.790Z,69.59
2018-10-09T01:55:04.940Z,69.49
2018-10-09T01:55:31.083Z,69.87
2018-10-09T01:55:57.231Z,70.07
2018-10-09T01:56:23.380Z,69.68
2018-10-09T01:56:49.511Z,69.68
2018-10-09T01:57:15.641Z,69.87
2018-10-09T01:57:41.769Z,69.49
2018-10-09T01:58:07.916Z,69.49
2018-10-09T01:58:34.074Z,70.07
2018-10-09T01:59:00.223Z,69.59
2018-10-09T01:59:26.347Z,70.73
2018-10-09T01:59:52.475Z,70.26
2018-10-09T02:00:18.607Z,70.54
2018-10-09T02:00:44.732Z,70.45
2018-10-09T02:01:10.867Z,70.64
2018-10-09T02:01:36.998Z,70.54
2018-10-09T02:02:03.128Z,70.64
2018-10-09T02:02:29.252Z,70.64
2018-10-09T02:02:55.382Z,70.45
2018-10-09T02:03:21.508Z,70.73
2018-10-09T02:03:47.635Z,69.78
2018-10-09T02:04:13.762Z,70.07
2018-10-09T02:04:39.892Z,69.59
2018-10-09T02:05:06.024Z,69.68
2018-10-09T02:05:32.173Z,70.64
2018-10-09T02:05:58.301Z,70.26
2018-10-09T02:06:24.450Z,70.45
2018-10-09T02:06:50.639Z,71.12
2018-10-09T02:07:16.770Z,70.92
2018-10-09T02:07:42.903Z,70.83
2018-10-09T02:08:09.060Z,71.12
2018-10-09T02:08:35.188Z,71.12
2018-10-09T02:09:01.312Z,71.98
2018-10-09T02:09:27.436Z,72.07
2018-10-09T02:09:53.593Z,72.17
2018-10-09T02:10:19.765Z,71.46
2018-10-09T02:10:45.917Z,71.56
2018-10-09T02:11:12.045Z,72.51
2018-10-09T02:11:38.173Z,72.03
2018-10-09T02:12:04.310Z,72.03
2018-10-09T02:12:30.437Z,72.61
2018-10-09T02:12:56.592Z,72.51
2018-10-09T02:13:22.743Z,72.32
2018-10-09T02:13:48.863Z,73.08
2018-10-09T02:14:14.991Z,73.18
2018-10-09T02:14:41.117Z,73.08
2018-10-09T02:15:07.246Z,72.89
2018-10-09T02:15:33.418Z,72.99
2018-10-09T02:15:59.545Z,73.18
2018-10-09T02:16:25.678Z,73.08
2018-10-09T02:16:51.802Z,72.51
2018-10-09T02:17:17.946Z,73.28
2018-10-09T02:17:44.079Z,73.28
2018-10-09T02:18:10.211Z,73.08
2018-10-09T02:18:36.334Z,73.08
2018-10-09T02:19:02.450Z,73.28
2018-10-09T02:19:28.585Z,73.18
2018-10-09T02:19:54.722Z,73.18
2018-10-09T02:20:20.843Z,72.99
2018-10-09T02:20:46.996Z,72.61
2018-10-09T02:21:13.127Z,72.89
2018-10-09T02:21:39.247Z,73.08
2018-10-09T02:22:05.384Z,72.8
2018-10-09T02:22:31.517Z,72.99
2018-10-09T02:22:57.639Z,73.08
2018-10-09T02:23:23.796Z,72.71
2018-10-09T02:23:49.922Z,73.28
2018-10-09T02:24:16.068Z,73.18
2018-10-09T02:24:42.219Z,73.18
2018-10-09T02:25:08.368Z,73.85
2018-10-09T02:25:34.493Z,73.56
2018-10-09T02:26:00.615Z,74.13
2018-10-09T02:26:26.747Z,74.1
2018-10-09T02:26:52.869Z,73.66
2018-10-09T02:27:18.997Z,73.85
2018-10-09T02:27:45.147Z,73.56
2018-10-09T02:28:11.325Z,73.75
2018-10-09T02:28:37.456Z,73.94
2018-10-09T02:29:03.574Z,74.13
2018-10-09T02:29:29.705Z,72.99
2018-10-09T02:29:55.856Z,73.18
2018-10-09T02:30:22.007Z,73.08
2018-10-09T02:30:48.200Z,73.28
2018-10-09T02:31:14.331Z,72.99
2018-10-09T02:31:40.459Z,72.89
2018-10-09T02:32:06.650Z,72.8
2018-10-09T02:32:32.780Z,72.99
2018-10-09T02:32:58.927Z,73.18
2018-10-09T02:33:25.123Z,72.89
2018-10-09T02:33:51.275Z,73.18
2018-10-09T02:34:17.402Z,73.18
2018-10-09T02:34:43.525Z,73.18
2018-10-09T02:35:09.660Z,72.99
2018-10-09T02:35:35.783Z,73.08
2018-10-09T02:36:01.921Z,72.99
2018-10-09T02:36:28.061Z,73.08
2018-10-09T02:36:54.192Z,72.99
2018-10-09T02:37:20.322Z,72.89
2018-10-09T02:37:46.472Z,72.8
2018-10-09T02:38:12.610Z,73.18
2018-10-09T02:38:38.789Z,73.18
2018-10-09T02:39:04.935Z,72.89
2018-10-09T02:39:31.092Z,72.89
2018-10-09T02:39:57.261Z,73.18
2018-10-09T02:40:23.406Z,72.42
2018-10-09T02:40:49.538Z,72.89
2018-10-09T02:41:15.669Z,72.32
2018-10-09T02:41:41.792Z,72.89
2018-10-09T02:42:07.948Z,72.99
2018-10-09T02:42:34.090Z,72.99
2018-10-09T02:43:00.224Z,72.99
2018-10-09T02:43:26.366Z,73.18
2018-10-09T02:43:52.497Z,73.08
2018-10-09T02:44:18.648Z,72.99
2018-10-09T02:44:44.797Z,73.08
2018-10-09T02:45:10.945Z,72.89
2018-10-09T02:45:37.091Z,72.99
2018-10-09T02:46:03.216Z,72.99
2018-10-09T02:46:29.390Z,73.28
2018-10-09T02:46:55.527Z,73.18
2018-10-09T02:47:21.669Z,72.71
2018-10-09T02:47:47.792Z,72.71
2018-10-09T02:48:13.926Z,72.89
2018-10-09T02:48:40.051Z,72.89
2018-10-09T02:49:06.187Z,72.61
2018-10-09T02:49:32.308Z,72.89
2018-10-09T02:49:58.438Z,72.99
2018-10-09T02:50:24.590Z,73.18
2018-10-09T02:50:50.715Z,73.08
2018-10-09T02:51:16.840Z,73.08
2018-10-09T02:51:42.992Z,72.99
2018-10-09T02:52:09.118Z,73.18
2018-10-09T02:52:35.249Z,73.08
2018-10-09T02:53:01.372Z,73.08
2018-10-09T02:53:27.529Z,72.99
2018-10-09T02:53:53.706Z,73.18
2018-10-09T02:54:19.823Z,73.18
2018-10-09T02:54:45.950Z,73.18
2018-10-09T02:55:12.083Z,73.08
2018-10-09T02:55:38.205Z,73.28
2018-10-09T02:56:04.368Z,73.18
2018-10-09T02:56:30.497Z,73.05
2018-10-09T02:56:56.639Z,73.18
2018-10-09T02:57:22.832Z,73.28
2018-10-09T02:57:48.978Z,73.08
2018-10-09T02:58:15.119Z,73.18
2018-10-09T02:58:41.264Z,73.18
2018-10-09T02:59:07.386Z,73.05
2018-10-09T02:59:33.543Z,73.05
2018-10-09T02:59:59.689Z,73.72
2018-10-09T03:00:25.819Z,73.72
2018-10-09T03:00:51.975Z,73.52
2018-10-09T03:01:18.121Z,74.1
2018-10-09T03:01:44.251Z,73.72
2018-10-09T03:02:10.397Z,74.29
2018-10-09T03:02:36.547Z,74.19
2018-10-09T03:03:02.704Z,74.29
2018-10-09T03:03:28.834Z,73.81
2018-10-09T03:03:54.959Z,73.91
2018-10-09T03:04:21.114Z,73.72
2018-10-09T03:04:47.263Z,74.38
2018-10-09T03:05:13.390Z,74.48
2018-10-09T03:05:39.521Z,74.29
2018-10-09T03:06:05.650Z,74.38
2018-10-09T03:06:31.796Z,74.01
2018-10-09T03:06:57.921Z,74.38
2018-10-09T03:07:24.047Z,74.29
2018-10-09T03:07:50.203Z,73.91
2018-10-09T03:08:16.347Z,74.29
2018-10-09T03:08:42.532Z,74.1
2018-10-09T03:09:08.591Z,73.72
2018-10-09T03:09:34.739Z,74.1
2018-10-09T03:10:00.909Z,74.01
2018-10-09T03:10:27.057Z,73.91
2018-10-09T03:10:53.214Z,73.81
2018-10-09T03:11:19.331Z,74.01
2018-10-09T03:11:45.465Z,74.01
2018-10-09T03:12:11.595Z,74.01
2018-10-09T03:12:37.773Z,73.91
2018-10-09T03:13:03.891Z,74.77
2018-10-09T03:13:30.020Z,74.38
2018-10-09T03:13:56.145Z,74.38
2018-10-09T03:14:22.272Z,74.38
2018-10-09T03:14:48.427Z,74.67
2018-10-09T03:15:14.554Z,74.48
2018-10-09T03:15:40.715Z,74.38
2018-10-09T03:16:06.836Z,74.57
2018-10-09T03:16:32.968Z,74.67
2018-10-09T03:16:59.096Z,74.19
2018-10-09T03:17:25.220Z,74.1
2018-10-09T03:17:51.363Z,74.1
2018-10-09T03:18:17.497Z,74.77
2018-10-09T03:18:43.623Z,74.77
2018-10-09T03:19:09.748Z,74.96
2018-10-09T03:19:35.873Z,75.34
2018-10-09T03:20:02.003Z,75.62
2018-10-09T03:20:28.162Z,75.05
2018-10-09T03:20:54.324Z,75.15
2018-10-09T03:21:20.471Z,75.91
2018-10-09T03:21:46.600Z,75.72
2018-10-09T03:22:12.728Z,75.72
2018-10-09T03:22:38.847Z,75.15
2018-10-09T03:23:04.978Z,74.67
2018-10-09T03:23:31.132Z,74.48
2018-10-09T03:23:57.260Z,74.86
2018-10-09T03:24:23.387Z,75.34
2018-10-09T03:24:49.522Z,74.77
2018-10-09T03:25:15.654Z,74.67
2018-10-09T03:25:41.783Z,74.96
2018-10-09T03:26:07.906Z,75.24
2018-10-09T03:26:34.032Z,74.86
2018-10-09T03:27:00.164Z,74.77
2018-10-09T03:27:26.295Z,74.96
2018-10-09T03:27:52.463Z,74.86
2018-10-09T03:28:18.596Z,74.48
2018-10-09T03:28:44.743Z,75.87
2018-10-09T03:29:10.893Z,76.25
2018-10-09T03:29:37.034Z,75.78
2018-10-09T03:30:03.153Z,76.2
2018-10-09T03:30:29.305Z,76.35
2018-10-09T03:30:55.473Z,75.81
2018-10-09T03:31:21.606Z,75.87
2018-10-09T03:31:47.804Z,76.06
2018-10-09T03:32:13.947Z,75.96
2018-10-09T03:32:40.095Z,75.3
2018-10-09T03:33:06.237Z,76.35
2018-10-09T03:33:32.407Z,75.96
2018-10-09T03:33:58.559Z,76.73
2018-10-09T03:34:24.716Z,76.73
2018-10-09T03:34:50.864Z,76.64
2018-10-09T03:35:16.987Z,76.73
2018-10-09T03:35:43.122Z,77.3
2018-10-09T03:36:09.273Z,77.2
2018-10-09T03:36:35.419Z,77.01
2018-10-09T03:37:01.572Z,77.59
2018-10-09T03:37:27.730Z,77.4
2018-10-09T03:37:53.856Z,77.3
2018-10-09T03:38:19.990Z,77.4
2018-10-09T03:38:46.107Z,77.01
2018-10-09T03:39:12.239Z,76.44
2018-10-09T03:39:38.364Z,76.44
2018-10-09T03:40:04.494Z,76.73
2018-10-09T03:40:30.643Z,76.64
2018-10-09T03:40:56.772Z,76.82
2018-10-09T03:41:22.900Z,76.44
2018-10-09T03:41:49.027Z,76.16
2018-10-09T03:42:15.154Z,76.25
2018-10-09T03:42:41.285Z,76.16
2018-10-09T03:43:07.411Z,75.96
2018-10-09T03:43:33.562Z,76.64
2018-10-09T03:43:59.690Z,76.64
2018-10-09T03:44:25.842Z,76.64
2018-10-09T03:44:51.968Z,76.64
2018-10-09T03:45:18.120Z,76.44
2018-10-09T03:45:44.252Z,76.25
2018-10-09T03:46:10.378Z,76.06
2018-10-09T03:46:36.508Z,75.87
2018-10-09T03:47:02.631Z,76.35
2018-10-09T03:47:28.756Z,76.16
2018-10-09T03:47:54.915Z,76.16
2018-10-09T03:48:21.046Z,76.25
2018-10-09T03:48:47.173Z,76.06
2018-10-09T03:49:13.300Z,75.78
2018-10-09T03:49:39.429Z,75.78
2018-10-09T03:50:05.585Z,75.87
2018-10-09T03:50:31.732Z,75.87
2018-10-09T03:50:57.861Z,76.06
2018-10-09T03:51:23.992Z,76.16
2018-10-09T03:51:50.130Z,75.96
2018-10-09T03:52:16.256Z,76.44
2018-10-09T03:52:42.400Z,76.82
2018-10-09T03:53:08.546Z,76.64
2018-10-09T03:53:34.674Z,77.2
2018-10-09T03:54:00.819Z,76.92
2018-10-09T03:54:26.948Z,77.11
2018-10-09T03:54:53.078Z,77.2
2018-10-09T03:55:19.202Z,77.2
2018-10-09T03:55:45.325Z,77.49
2018-10-09T03:56:11.460Z,77.59
2018-10-09T03:56:37.577Z,77.49
2018-10-09T03:57:03.708Z,77.59
2018-10-09T03:57:29.833Z,77.78
2018-10-09T03:57:55.961Z,77.2
2018-10-09T03:58:22.084Z,77.69
2018-10-09T03:58:48.217Z,77.4
2018-10-09T03:59:14.366Z,77.59
2018-10-09T03:59:40.486Z,77.01
2018-10-09T04:00:06.610Z,77.2
2018-10-09T04:00:32.742Z,76.92
2018-10-09T04:00:58.900Z,77.3
2018-10-09T04:01:25.042Z,77.11
2018-10-09T04:01:51.166Z,77.01
2018-10-09T04:02:17.290Z,77.01
2018-10-09T04:02:43.427Z,77.3
2018-10-09T04:03:09.548Z,76.54
2018-10-09T04:03:35.679Z,76.54
2018-10-09T04:04:01.829Z,76.25
2018-10-09T04:04:27.955Z,76.54
2018-10-09T04:04:54.083Z,76.64
2018-10-09T04:05:20.228Z,76.73
2018-10-09T04:05:46.360Z,76.64
2018-10-09T04:06:12.493Z,76.64
2018-10-09T04:06:38.621Z,76.73
2018-10-09T04:07:04.773Z,76.54
2018-10-09T04:07:30.903Z,76.54
2018-10-09T04:07:57.037Z,76.44
2018-10-09T04:08:23.207Z,76.44
2018-10-09T04:08:49.330Z,76.54
2018-10-09T04:09:15.631Z,76.54
2018-10-09T04:09:41.639Z,76.64
2018-10-09T04:10:07.766Z,76.82
2018-10-09T04:10:33.896Z,76.16
2018-10-09T04:11:00.022Z,76.06
2018-10-09T04:11:26.177Z,75.96
2018-10-09T04:11:52.294Z,76.35
2018-10-09T04:12:18.422Z,76.25
2018-10-09T04:12:44.634Z,76.06
2018-10-09T04:13:10.706Z,76.25
2018-10-09T04:13:36.830Z,76.06
2018-10-09T04:14:02.959Z,76.44
2018-10-09T04:14:29.090Z,76.25
2018-10-09T04:14:55.219Z,76.25
2018-10-09T04:15:21.347Z,76.82
2018-10-09T04:15:47.473Z,76.16
2018-10-09T04:16:13.607Z,76.01
2018-10-09T04:16:39.757Z,76.1
2018-10-09T04:17:05.903Z,76.2
2018-10-09T04:17:32.038Z,76.1
2018-10-09T04:17:58.162Z,76.1
2018-10-09T04:18:24.312Z,75.81
2018-10-09T04:18:50.436Z,76.1
2018-10-09T04:19:16.601Z,75.81
2018-10-09T04:19:42.687Z,75.81
2018-10-09T04:20:08.821Z,76.25
2018-10-09T04:20:34.944Z,76.06
2018-10-09T04:21:01.098Z,76.25
2018-10-09T04:21:27.214Z,76.64
2018-10-09T04:21:53.344Z,76.16
2018-10-09T04:22:19.473Z,76.01
2018-10-09T04:22:45.606Z,76.2
2018-10-09T04:23:11.730Z,76.1
2018-10-09T04:23:37.866Z,76.29
2018-10-09T04:24:03.987Z,76.2
2018-10-09T04:24:30.121Z,76.64
2018-10-09T04:24:56.245Z,76.73
2018-10-09T04:25:22.370Z,76.54
2018-10-09T04:25:48.499Z,76.54
2018-10-09T04:26:14.627Z,76.29
2018-10-09T04:26:40.756Z,76.44
2018-10-09T04:27:06.885Z,76.64
2018-10-09T04:27:33.011Z,77.3
2018-10-09T04:27:59.137Z,77.2
2018-10-09T04:28:25.289Z,77.01
2018-10-09T04:28:51.462Z,77.01
2018-10-09T04:29:17.667Z,77.4
2018-10-09T04:29:43.766Z,77.11
2018-10-09T04:30:09.919Z,77.59
2018-10-09T04:30:36.037Z,77.69
2018-10-09T04:31:02.171Z,77.11
2018-10-09T04:31:28.298Z,77.4
2018-10-09T04:31:54.425Z,77.69
2018-10-09T04:32:20.551Z,77.59
2018-10-09T04:32:46.703Z,77.59
2018-10-09T04:33:12.861Z,77.49
2018-10-09T04:33:39.009Z,77.59
2018-10-09T04:34:05.140Z,77.49
2018-10-09T04:34:31.266Z,77.49
2018-10-09T04:34:57.396Z,77.4
2018-10-09T04:35:23.600Z,77.3
2018-10-09T04:35:49.737Z,77.2
2018-10-09T04:36:15.864Z,77.49
2018-10-09T04:36:42.013Z,77.4
2018-10-09T04:37:08.164Z,77.4
2018-10-09T04:37:34.321Z,77.49
2018-10-09T04:38:00.441Z,77.4
2018-10-09T04:38:26.568Z,78.25
2018-10-09T04:38:52.690Z,77.78
2018-10-09T04:39:18.841Z,78.16
2018-10-09T04:39:44.967Z,77.97
2018-10-09T04:40:11.099Z,78.06
2018-10-09T04:40:37.219Z,78.25
2018-10-09T04:41:03.343Z,77.78
2018-10-09T04:41:29.503Z,78.25
2018-10-09T04:41:55.645Z,78.54
2018-10-09T04:42:21.796Z,77.97
2018-10-09T04:42:47.957Z,78.25
2018-10-09T04:43:14.077Z,78.35
2018-10-09T04:43:40.236Z,78.44
2018-10-09T04:44:06.362Z,78.44
2018-10-09T04:44:32.484Z,78.06
2018-10-09T04:44:58.631Z,78.35
2018-10-09T04:45:24.840Z,78.64
2018-10-09T04:45:50.929Z,78.35
2018-10-09T04:46:17.053Z,78.35
2018-10-09T04:46:43.178Z,78.44
2018-10-09T04:47:09.303Z,78.64
2018-10-09T04:47:35.432Z,78.54
2018-10-09T04:48:01.561Z,78.44
2018-10-09T04:48:27.710Z,78.64
2018-10-09T04:48:53.839Z,78.44
2018-10-09T04:49:19.968Z,78.44
2018-10-09T04:49:46.097Z,78.44
2018-10-09T04:50:12.222Z,78.06
2018-10-09T04:50:38.359Z,78.35
2018-10-09T04:51:04.531Z,78.44
2018-10-09T04:51:30.651Z,78.06
2018-10-09T04:51:56.780Z,78.44
2018-10-09T04:52:22.913Z,78.25
2018-10-09T04:52:49.071Z,78.16
2018-10-09T04:53:15.239Z,78.16
2018-10-09T04:53:41.366Z,77.78
2018-10-09T04:54:07.501Z,77.87
2018-10-09T04:54:33.651Z,77.4
2018-10-09T04:54:59.799Z,77.49
2018-10-09T04:55:25.928Z,77.01
2018-10-09T04:55:52.056Z,77.3
2018-10-09T04:56:18.177Z,77.4
2018-10-09T04:56:44.302Z,77.59
2018-10-09T04:57:10.426Z,77.11
2018-10-09T04:57:36.602Z,77.2
2018-10-09T04:58:02.730Z,77.59
2018-10-09T04:58:28.875Z,77.4
2018-10-09T04:58:55.000Z,77.59
2018-10-09T04:59:21.152Z,77.4
2018-10-09T04:59:47.304Z,77.4
2018-10-09T05:00:13.477Z,77.59
2018-10-09T05:00:39.681Z,77.01
2018-10-09T05:01:05.749Z,77.59
2018-10-09T05:01:31.878Z,77.2
2018-10-09T05:01:58.002Z,77.3
2018-10-09T05:02:24.160Z,77.49
2018-10-09T05:02:50.286Z,77.01
2018-10-09T05:03:16.418Z,77.69
2018-10-09T05:03:42.568Z,77.69
2018-10-09T05:04:08.723Z,77.2
2018-10-09T05:04:34.849Z,77.4
2018-10-09T05:05:00.972Z,77.59
2018-10-09T05:05:27.099Z,77.4
2018-10-09T05:05:53.233Z,77.97
2018-10-09T05:06:19.386Z,77.87
2018-10-09T05:06:45.508Z,77.78
2018-10-09T05:07:11.642Z,77.59
2018-10-09T05:07:37.790Z,77.69
2018-10-09T05:08:03.921Z,78.35
2018-10-09T05:08:30.046Z,78.25
2018-10-09T05:08:56.171Z,78.44
2018-10-09T05:09:22.321Z,78.25
2018-10-09T05:09:48.452Z,78.35
2018-10-09T05:10:14.577Z,78.25
2018-10-09T05:10:40.707Z,78.54
2018-10-09T05:11:06.856Z,78.44
2018-10-09T05:11:32.988Z,78.35
2018-10-09T05:11:59.115Z,78.06
2018-10-09T05:12:25.251Z,78.16
2018-10-09T05:12:51.381Z,78.35
2018-10-09T05:13:17.529Z,78.25
2018-10-09T05:13:43.651Z,78.44
2018-10-09T05:14:09.821Z,78.35
2018-10-09T05:14:35.949Z,77.97
2018-10-09T05:15:02.083Z,78.25
2018-10-09T05:15:28.223Z,77.97
2018-10-09T05:15:54.369Z,77.69
2018-10-09T05:16:20.505Z,78.06
2018-10-09T05:16:46.636Z,78.35
2018-10-09T05:17:12.765Z,78.25
2018-10-09T05:17:38.914Z,78.44
2018-10-09T05:18:05.020Z,78.92
2018-10-09T05:18:31.172Z,78.83
2018-10-09T05:18:57.323Z,79.02
2018-10-09T05:19:23.492Z,78.06
2018-10-09T05:19:49.628Z,78.54
2018-10-09T05:20:15.758Z,78.44
2018-10-09T05:20:41.881Z,78.06
2018-10-09T05:21:08.013Z,78.54
2018-10-09T05:21:34.157Z,78.44
2018-10-09T05:22:00.284Z,78.64
2018-10-09T05:22:26.442Z,78.92
2018-10-09T05:22:52.567Z,78.73
2018-10-09T05:23:18.796Z,79.21
2018-10-09T05:23:44.834Z,78.92
2018-10-09T05:24:10.987Z,79.21
2018-10-09T05:24:37.118Z,79.02
2018-10-09T05:25:03.251Z,79.21
2018-10-09T05:25:29.377Z,79.59
2018-10-09T05:25:55.504Z,78.35
2018-10-09T05:26:21.625Z,78.83
2018-10-09T05:26:47.759Z,79.21
2018-10-09T05:27:13.886Z,78.73
2018-10-09T05:27:40.036Z,78.64
2018-10-09T05:28:06.169Z,78.64
2018-10-09T05:28:32.293Z,79.59
2018-10-09T05:28:58.430Z,79.3
2018-10-09T05:29:24.587Z,79.21
2018-10-09T05:29:50.762Z,79.02
2018-10-09T05:30:16.889Z,78.92
2018-10-09T05:30:43.016Z,79.3
2018-10-09T05:31:09.222Z,79.21
2018-10-09T05:31:35.370Z,79.11
2018-10-09T05:32:01.423Z,78.92
2018-10-09T05:32:27.569Z,79.11
2018-10-09T05:32:53.704Z,78.98
2018-10-09T05:33:19.831Z,79.11
2018-10-09T05:33:45.961Z,79.64
2018-10-09T05:34:12.092Z,80.22
2018-10-09T05:34:38.287Z,80.22
2018-10-09T05:35:04.439Z,79.83
2018-10-09T05:35:30.568Z,80.12
2018-10-09T05:35:56.713Z,80.5
2018-10-09T05:36:22.847Z,80.41
2018-10-09T05:36:48.985Z,80.5
2018-10-09T05:37:15.115Z,80.5
2018-10-09T05:37:41.288Z,80.88